createdAt,value
2023-05-19T00:05:53.771Z,5.9
2023-05-19T00:11:53.685Z,6
2023-05-19T00:17:53.733Z,6
2023-05-19T00:23:53.699Z,6.1
2023-05-19T00:29:53.719Z,6
2023-05-19T00:35:53.679Z,6.1
2023-05-19T00:41:53.699Z,6.1
2023-05-19T00:47:53.717Z,6.1
2023-05-19T00:53:53.673Z,6.1
2023-05-19T00:59:53.712Z,6.3
2023-05-19T01:05:53.821Z,6.2
2023-05-19T01:11:53.707Z,6.3
2023-05-19T01:17:53.705Z,6.3
2023-05-19T01:23:53.693Z,6.4
2023-05-19T01:29:53.688Z,6.5
2023-05-19T01:35:53.692Z,6.5
2023-05-19T01:47:53.755Z,6.8
2023-05-19T01:53:53.713Z,6.8
2023-05-19T01:59:53.748Z,6.9
2023-05-19T02:05:53.718Z,7
2023-05-19T02:11:53.678Z,7.1
2023-05-19T02:17:53.713Z,7.1
2023-05-19T02:23:53.662Z,7.2
2023-05-19T02:29:53.700Z,7.2
2023-05-19T02:35:53.696Z,7.2
2023-05-19T02:41:53.696Z,7.2
2023-05-19T02:47:53.783Z,7.3
2023-05-19T02:53:53.708Z,7.3
2023-05-19T02:59:53.699Z,7.3
2023-05-19T03:05:53.681Z,7.4
2023-05-19T03:11:53.726Z,7.5
2023-05-19T03:17:53.805Z,7.5
2023-05-19T03:23:53.669Z,7.5
2023-05-19T03:29:53.696Z,7.4
2023-05-19T03:35:53.733Z,7.3
2023-05-19T03:41:53.686Z,7.3
2023-05-19T03:47:53.743Z,7.3
2023-05-19T03:53:53.704Z,7.3
2023-05-19T03:59:53.707Z,7.1
2023-05-19T04:05:53.683Z,7.3
2023-05-19T04:11:53.669Z,7.3
2023-05-19T04:17:53.886Z,7.4
2023-05-19T04:23:53.698Z,7.4
2023-05-19T04:29:53.674Z,7.5
2023-05-19T04:35:53.706Z,7.5
2023-05-19T04:41:53.683Z,7.6
2023-05-19T04:47:53.704Z,7.7
2023-05-19T04:53:53.690Z,7.9
2023-05-19T04:59:53.685Z,8
2023-05-19T05:05:53.703Z,7.9
2023-05-19T05:11:53.676Z,8.1
2023-05-19T05:17:53.736Z,8
2023-05-19T05:23:53.722Z,7.9
2023-05-19T05:29:53.718Z,8
2023-05-19T05:35:53.657Z,8.2
2023-05-19T05:47:53.708Z,8.2
2023-05-19T05:53:53.677Z,8.4
2023-05-19T05:59:53.717Z,8.6
2023-05-19T06:05:53.801Z,8.4
2023-05-19T06:11:53.677Z,8.2
2023-05-19T06:17:53.726Z,7.6
2023-05-19T06:23:53.696Z,8.7
2023-05-19T06:29:53.665Z,7.8
2023-05-19T06:35:53.726Z,7.7
2023-05-19T06:41:53.694Z,8.2
2023-05-19T06:47:53.753Z,7.6
2023-05-19T06:53:53.708Z,8.1
2023-05-19T06:59:53.691Z,8
2023-05-19T07:05:53.681Z,8.1
2023-05-19T07:11:53.692Z,7.9
2023-05-19T07:17:53.682Z,7.1
2023-05-19T07:29:53.683Z,7.3
2023-05-19T07:35:53.752Z,7.2
2023-05-19T07:41:53.690Z,7.5
2023-05-19T07:47:53.721Z,8.5
2023-05-19T07:53:53.707Z,8.3
2023-05-19T08:05:53.743Z,8.7
2023-05-19T08:11:53.686Z,7
2023-05-19T08:17:53.697Z,7.5
2023-05-19T08:23:53.727Z,6.7
2023-05-19T08:29:53.723Z,7
2023-05-19T08:35:53.724Z,8.4
2023-05-19T08:41:53.751Z,7.7
2023-05-19T08:47:53.737Z,7
2023-05-19T08:53:53.744Z,9.1
2023-05-19T08:59:53.716Z,8.3
2023-05-19T09:05:53.818Z,7.4
2023-05-19T09:11:53.764Z,6
2023-05-19T09:17:53.795Z,6
2023-05-19T09:23:53.784Z,5.8
2023-05-19T09:29:53.745Z,6
2023-05-19T09:35:53.730Z,6.4
2023-05-19T09:41:53.763Z,5.3
2023-05-19T09:47:53.771Z,5.3
2023-05-19T09:53:53.756Z,5.2
2023-05-19T09:59:53.748Z,4.6
2023-05-19T10:05:53.871Z,5.2
2023-05-19T10:17:53.826Z,5.9
2023-05-19T10:23:53.783Z,5.7
2023-05-19T10:29:53.748Z,5.7
2023-05-19T10:35:53.754Z,5.7
2023-05-19T10:41:53.796Z,5
2023-05-19T10:47:53.828Z,5
2023-05-19T10:53:53.766Z,5
2023-05-19T10:59:53.785Z,4.7
2023-05-19T11:05:53.785Z,4.6
2023-05-19T11:17:53.839Z,6
2023-05-19T11:23:53.905Z,4.4
2023-05-19T11:29:53.761Z,4.6
2023-05-19T11:35:53.815Z,4.8
2023-05-19T11:41:53.781Z,3.9
2023-05-19T11:53:53.774Z,3.6
2023-05-19T11:59:53.772Z,4.1
2023-05-19T12:05:53.795Z,2.8
2023-05-19T12:11:53.789Z,3.3
2023-05-19T12:17:53.794Z,3.3
2023-05-19T12:29:53.801Z,4.5
2023-05-19T12:36:04.066Z,3.3
2023-05-19T12:41:53.805Z,3.6
2023-05-19T12:47:53.783Z,6.4
2023-05-19T12:53:53.798Z,5.6
2023-05-19T12:59:53.761Z,5.4
2023-05-19T13:05:53.807Z,4.2
2023-05-19T13:11:53.794Z,4
2023-05-19T13:17:53.884Z,3.6
2023-05-19T13:23:53.790Z,3.9
2023-05-19T13:29:53.801Z,3.6
2023-05-19T13:35:53.800Z,3.6
2023-05-19T13:47:53.879Z,3.3
2023-05-19T13:53:53.801Z,4.6
2023-05-19T14:00:02.007Z,4.2
2023-05-19T14:05:53.802Z,4.3
2023-05-19T14:11:53.790Z,3.9
2023-05-19T14:17:53.873Z,4
2023-05-19T14:23:53.785Z,3.6
2023-05-19T14:29:53.796Z,4.5
2023-05-19T14:35:53.803Z,4.6
2023-05-19T14:41:53.845Z,4.4
2023-05-19T14:47:53.879Z,4.8
2023-05-19T14:53:53.819Z,4.3
2023-05-19T14:59:53.818Z,4.1
2023-05-19T15:05:53.927Z,4.2
2023-05-19T15:11:53.828Z,4.5
2023-05-19T15:17:53.832Z,4
2023-05-19T15:23:53.849Z,4.5
2023-05-19T15:29:53.819Z,4.3
2023-05-19T15:35:53.825Z,4.5
2023-05-19T15:41:53.896Z,5.4
2023-05-19T15:47:53.852Z,4.8
2023-05-19T15:53:53.819Z,5.2
2023-05-19T15:59:53.834Z,5.3
2023-05-19T16:05:53.824Z,5.1
2023-05-19T16:11:53.839Z,4.8
2023-05-19T16:17:53.879Z,5.4
2023-05-19T16:23:53.861Z,5.5
2023-05-19T16:30:04.107Z,5.3
2023-05-19T16:35:53.914Z,5.7
2023-05-19T16:41:53.825Z,5.7
2023-05-19T16:47:53.999Z,5.3
2023-05-19T16:53:53.835Z,5.5
2023-05-19T16:59:53.924Z,5.5
2023-05-19T17:05:53.830Z,5.5
2023-05-19T17:11:53.829Z,5.5
2023-05-19T17:17:53.870Z,5.1
2023-05-19T17:23:53.844Z,5.3
2023-05-19T17:29:53.930Z,5.2
2023-05-19T17:35:53.876Z,5.6
2023-05-19T17:41:53.873Z,5.7
2023-05-19T17:47:53.870Z,5.9
2023-05-19T17:53:53.875Z,5.8
2023-05-19T17:59:53.874Z,5.6
2023-05-19T18:05:53.885Z,5.5
2023-05-19T18:11:53.837Z,5.5
2023-05-19T18:23:53.904Z,5.8
2023-05-19T18:29:53.851Z,5.6
2023-05-19T18:35:53.854Z,5.9
2023-05-19T18:41:53.860Z,6.1
2023-05-19T18:47:53.901Z,5.9
2023-05-19T18:53:53.889Z,5.9
2023-05-19T18:59:53.864Z,5.9
2023-05-19T19:05:53.963Z,5.9
2023-05-19T19:11:53.889Z,5.9
2023-05-19T19:17:53.898Z,6
2023-05-19T19:23:53.882Z,6
2023-05-19T19:35:53.861Z,6.1
2023-05-19T19:41:53.849Z,6
2023-05-19T19:47:53.948Z,6.1
2023-05-19T19:53:53.832Z,6
2023-05-19T19:59:53.861Z,6.1
2023-05-19T20:05:53.874Z,6.2
2023-05-19T20:11:53.857Z,6.3
2023-05-19T20:17:53.893Z,6.4
2023-05-19T20:23:53.863Z,6.5
2023-05-19T20:29:53.867Z,6.7
2023-05-19T20:35:53.875Z,6.8
2023-05-19T20:41:53.864Z,6.7
2023-05-19T20:47:53.885Z,6.7
2023-05-19T20:53:53.925Z,6.9
2023-05-19T20:59:53.896Z,6.8
2023-05-19T21:05:53.890Z,6.8
2023-05-19T21:11:53.862Z,6.8
2023-05-19T21:17:53.907Z,6.8
2023-05-19T21:23:53.932Z,7
2023-05-19T21:29:53.854Z,7
2023-05-19T21:35:53.941Z,7.1
2023-05-19T21:41:53.858Z,7.1
2023-05-19T21:47:53.848Z,7.2
2023-05-19T21:53:53.886Z,7.3
2023-05-19T21:59:53.906Z,7.2
2023-05-19T22:05:53.864Z,7.2
2023-05-19T22:11:53.872Z,7.2
2023-05-19T22:17:53.913Z,7.5
2023-05-19T22:23:53.862Z,7.4
2023-05-19T22:29:53.871Z,7.5
2023-05-19T22:35:53.863Z,7.5
2023-05-19T22:47:53.948Z,7.6
2023-05-19T22:59:53.839Z,7.8
2023-05-19T23:05:53.866Z,7.9
2023-05-19T23:17:53.873Z,8
2023-05-19T23:23:53.882Z,8.1
2023-05-19T23:29:53.838Z,8.1
2023-05-19T23:35:53.873Z,8.2
2023-05-19T23:47:53.906Z,8.2
2023-05-19T23:53:53.868Z,8
2023-05-19T23:59:53.862Z,8
